sensor_id;sensor_type;location;lat;lon;timestamp;P1;durP1;ratioP1;P2;durP2;ratioP2
10458;SDS011;5277;48.722;8.736;2023-06-14T00:00:20;4.28;;;3.40;;
10458;SDS011;5277;48.722;8.736;2023-06-14T00:02:46;5.15;;;3.53;;
10458;SDS011;5277;48.722;8.736;2023-06-14T00:05:11;5.40;;;3.50;;
10458;SDS011;5277;48.722;8.736;2023-06-14T00:07:38;6.82;;;3.80;;
10458;SDS011;5277;48.722;8.736;2023-06-14T00:10:08;5.30;;;3.65;;
10458;SDS011;5277;48.722;8.736;2023-06-14T00:12:34;4.68;;;3.38;;
10458;SDS011;5277;48.722;8.736;2023-06-14T00:15:01;4.20;;;3.28;;
10458;SDS011;5277;48.722;8.736;2023-06-14T00:17:27;4.95;;;3.65;;
10458;SDS011;5277;48.722;8.736;2023-06-14T00:19:56;5.13;;;3.53;;
10458;SDS011;5277;48.722;8.736;2023-06-14T00:22:23;5.35;;;3.80;;
10458;SDS011;5277;48.722;8.736;2023-06-14T00:24:49;4.30;;;3.58;;
10458;SDS011;5277;48.722;8.736;2023-06-14T00:27:16;4.80;;;3.58;;
10458;SDS011;5277;48.722;8.736;2023-06-14T00:29:41;5.80;;;3.20;;
10458;SDS011;5277;48.722;8.736;2023-06-14T00:32:07;4.10;;;3.28;;
10458;SDS011;5277;48.722;8.736;2023-06-14T00:34:33;3.95;;;3.33;;
10458;SDS011;5277;48.722;8.736;2023-06-14T00:36:59;6.97;;;3.88;;
10458;SDS011;5277;48.722;8.736;2023-06-14T00:39:24;5.50;;;3.80;;
10458;SDS011;5277;48.722;8.736;2023-06-14T00:41:50;7.13;;;3.50;;
10458;SDS011;5277;48.722;8.736;2023-06-14T00:44:16;9.30;;;3.67;;
10458;SDS011;5277;48.722;8.736;2023-06-14T00:46:42;5.03;;;3.75;;
10458;SDS011;5277;48.722;8.736;2023-06-14T00:49:08;4.15;;;3.28;;
10458;SDS011;5277;48.722;8.736;2023-06-14T00:51:35;4.65;;;3.45;;
10458;SDS011;5277;48.722;8.736;2023-06-14T00:54:02;6.70;;;3.60;;
10458;SDS011;5277;48.722;8.736;2023-06-14T00:56:28;5.65;;;3.92;;
10458;SDS011;5277;48.722;8.736;2023-06-14T00:58:54;4.47;;;3.40;;
10458;SDS011;5277;48.722;8.736;2023-06-14T01:01:21;4.55;;;3.50;;
10458;SDS011;5277;48.722;8.736;2023-06-14T01:03:47;4.07;;;3.50;;
10458;SDS011;5277;48.722;8.736;2023-06-14T01:06:31;3.38;;;2.85;;
10458;SDS011;5277;48.722;8.736;2023-06-14T01:09:14;4.95;;;3.47;;
10458;SDS011;5277;48.722;8.736;2023-06-14T01:11:48;4.97;;;3.55;;
10458;SDS011;5277;48.722;8.736;2023-06-14T01:14:19;5.40;;;3.67;;
10458;SDS011;5277;48.722;8.736;2023-06-14T01:16:46;6.90;;;3.47;;
10458;SDS011;5277;48.722;8.736;2023-06-14T01:19:14;4.32;;;3.58;;
10458;SDS011;5277;48.722;8.736;2023-06-14T01:21:41;4.28;;;3.80;;
10458;SDS011;5277;48.722;8.736;2023-06-14T01:24:06;4.07;;;3.50;;
10458;SDS011;5277;48.722;8.736;2023-06-14T01:26:33;5.00;;;3.70;;
10458;SDS011;5277;48.722;8.736;2023-06-14T01:29:00;4.63;;;3.88;;
10458;SDS011;5277;48.722;8.736;2023-06-14T01:31:26;4.70;;;3.78;;
10458;SDS011;5277;48.722;8.736;2023-06-14T01:33:52;4.45;;;3.17;;
10458;SDS011;5277;48.722;8.736;2023-06-14T01:36:18;6.13;;;3.70;;
10458;SDS011;5277;48.722;8.736;2023-06-14T01:38:45;8.25;;;3.78;;
10458;SDS011;5277;48.722;8.736;2023-06-14T01:41:13;4.60;;;3.55;;
10458;SDS011;5277;48.722;8.736;2023-06-14T01:43:40;6.70;;;5.07;;
10458;SDS011;5277;48.722;8.736;2023-06-14T01:46:07;5.53;;;3.85;;
10458;SDS011;5277;48.722;8.736;2023-06-14T01:48:33;5.43;;;3.75;;
10458;SDS011;5277;48.722;8.736;2023-06-14T01:50:59;4.78;;;3.78;;
10458;SDS011;5277;48.722;8.736;2023-06-14T01:53:25;4.35;;;3.60;;
10458;SDS011;5277;48.722;8.736;2023-06-14T01:55:50;6.38;;;3.78;;
10458;SDS011;5277;48.722;8.736;2023-06-14T01:58:19;4.43;;;3.80;;
10458;SDS011;5277;48.722;8.736;2023-06-14T02:00:44;5.80;;;3.88;;
10458;SDS011;5277;48.722;8.736;2023-06-14T02:03:10;5.20;;;3.75;;
10458;SDS011;5277;48.722;8.736;2023-06-14T02:05:37;5.82;;;3.80;;
10458;SDS011;5277;48.722;8.736;2023-06-14T02:08:04;4.18;;;3.70;;
10458;SDS011;5277;48.722;8.736;2023-06-14T02:10:30;6.60;;;3.78;;
10458;SDS011;5277;48.722;8.736;2023-06-14T02:12:56;8.35;;;3.90;;
10458;SDS011;5277;48.722;8.736;2023-06-14T02:15:21;4.20;;;3.70;;
10458;SDS011;5277;48.722;8.736;2023-06-14T02:17:48;6.03;;;4.13;;
10458;SDS011;5277;48.722;8.736;2023-06-14T02:20:14;5.85;;;4.07;;
10458;SDS011;5277;48.722;8.736;2023-06-14T02:22:40;7.97;;;3.90;;
10458;SDS011;5277;48.722;8.736;2023-06-14T02:25:06;7.57;;;4.05;;
10458;SDS011;5277;48.722;8.736;2023-06-14T02:27:32;6.32;;;4.13;;
10458;SDS011;5277;48.722;8.736;2023-06-14T02:29:58;5.95;;;4.28;;
10458;SDS011;5277;48.722;8.736;2023-06-14T02:32:25;5.40;;;4.00;;
10458;SDS011;5277;48.722;8.736;2023-06-14T02:34:52;3.97;;;3.40;;
10458;SDS011;5277;48.722;8.736;2023-06-14T02:37:18;4.72;;;3.97;;
10458;SDS011;5277;48.722;8.736;2023-06-14T02:39:44;5.05;;;3.90;;
10458;SDS011;5277;48.722;8.736;2023-06-14T02:42:10;5.15;;;4.00;;
10458;SDS011;5277;48.722;8.736;2023-06-14T02:44:35;4.82;;;3.90;;
10458;SDS011;5277;48.722;8.736;2023-06-14T02:47:01;5.85;;;4.13;;
10458;SDS011;5277;48.722;8.736;2023-06-14T02:49:27;5.50;;;4.00;;
10458;SDS011;5277;48.722;8.736;2023-06-14T02:51:54;7.18;;;3.97;;
10458;SDS011;5277;48.722;8.736;2023-06-14T02:54:20;6.88;;;3.88;;
10458;SDS011;5277;48.722;8.736;2023-06-14T02:56:45;5.35;;;3.97;;
10458;SDS011;5277;48.722;8.736;2023-06-14T02:59:11;5.25;;;3.75;;
10458;SDS011;5277;48.722;8.736;2023-06-14T03:01:38;11.23;;;4.03;;
10458;SDS011;5277;48.722;8.736;2023-06-14T03:04:06;4.55;;;3.88;;
10458;SDS011;5277;48.722;8.736;2023-06-14T03:06:34;6.38;;;4.57;;
10458;SDS011;5277;48.722;8.736;2023-06-14T03:09:01;6.10;;;4.15;;
10458;SDS011;5277;48.722;8.736;2023-06-14T03:11:29;6.00;;;3.70;;
10458;SDS011;5277;48.722;8.736;2023-06-14T03:13:56;5.47;;;4.05;;
10458;SDS011;5277;48.722;8.736;2023-06-14T03:16:22;6.00;;;4.03;;
10458;SDS011;5277;48.722;8.736;2023-06-14T03:18:52;6.40;;;3.50;;
10458;SDS011;5277;48.722;8.736;2023-06-14T03:21:18;6.63;;;4.15;;
10458;SDS011;5277;48.722;8.736;2023-06-14T03:23:45;5.18;;;3.92;;
10458;SDS011;5277;48.722;8.736;2023-06-14T03:26:11;6.85;;;4.47;;
10458;SDS011;5277;48.722;8.736;2023-06-14T03:28:39;6.80;;;4.65;;
10458;SDS011;5277;48.722;8.736;2023-06-14T03:31:05;4.95;;;4.00;;
10458;SDS011;5277;48.722;8.736;2023-06-14T03:33:31;5.60;;;4.28;;
10458;SDS011;5277;48.722;8.736;2023-06-14T03:35:57;8.55;;;4.40;;
10458;SDS011;5277;48.722;8.736;2023-06-14T03:38:22;4.80;;;3.92;;
10458;SDS011;5277;48.722;8.736;2023-06-14T03:40:48;5.30;;;3.85;;
10458;SDS011;5277;48.722;8.736;2023-06-14T03:43:13;5.32;;;4.05;;
10458;SDS011;5277;48.722;8.736;2023-06-14T03:45:39;7.05;;;4.47;;
10458;SDS011;5277;48.722;8.736;2023-06-14T03:48:05;5.57;;;4.20;;
10458;SDS011;5277;48.722;8.736;2023-06-14T03:50:31;6.68;;;4.43;;
10458;SDS011;5277;48.722;8.736;2023-06-14T03:52:57;6.05;;;4.05;;
10458;SDS011;5277;48.722;8.736;2023-06-14T03:55:23;6.70;;;4.32;;
10458;SDS011;5277;48.722;8.736;2023-06-14T03:57:50;9.82;;;4.35;;
10458;SDS011;5277;48.722;8.736;2023-06-14T04:00:17;8.15;;;4.18;;
10458;SDS011;5277;48.722;8.736;2023-06-14T04:02:43;5.05;;;3.95;;
10458;SDS011;5277;48.722;8.736;2023-06-14T04:05:12;5.95;;;4.40;;
10458;SDS011;5277;48.722;8.736;2023-06-14T04:07:38;5.88;;;4.32;;
10458;SDS011;5277;48.722;8.736;2023-06-14T04:10:10;4.57;;;3.72;;
10458;SDS011;5277;48.722;8.736;2023-06-14T04:12:39;6.80;;;4.25;;
10458;SDS011;5277;48.722;8.736;2023-06-14T04:15:05;5.28;;;4.10;;
10458;SDS011;5277;48.722;8.736;2023-06-14T04:17:31;7.22;;;4.50;;
10458;SDS011;5277;48.722;8.736;2023-06-14T04:20:00;6.22;;;4.47;;
10458;SDS011;5277;48.722;8.736;2023-06-14T04:22:29;7.35;;;4.22;;
10458;SDS011;5277;48.722;8.736;2023-06-14T04:24:55;5.55;;;3.97;;
10458;SDS011;5277;48.722;8.736;2023-06-14T04:27:21;5.13;;;4.03;;
10458;SDS011;5277;48.722;8.736;2023-06-14T04:29:50;5.10;;;4.38;;
10458;SDS011;5277;48.722;8.736;2023-06-14T04:32:23;6.95;;;4.57;;
10458;SDS011;5277;48.722;8.736;2023-06-14T04:34:54;7.93;;;4.55;;
10458;SDS011;5277;48.722;8.736;2023-06-14T04:37:21;7.03;;;3.95;;
10458;SDS011;5277;48.722;8.736;2023-06-14T04:39:47;4.93;;;4.07;;
10458;SDS011;5277;48.722;8.736;2023-06-14T04:42:14;6.95;;;4.22;;
10458;SDS011;5277;48.722;8.736;2023-06-14T04:44:41;6.18;;;3.97;;
10458;SDS011;5277;48.722;8.736;2023-06-14T04:47:08;6.95;;;4.40;;
10458;SDS011;5277;48.722;8.736;2023-06-14T04:49:34;5.28;;;4.25;;
10458;SDS011;5277;48.722;8.736;2023-06-14T04:52:00;7.43;;;4.50;;
10458;SDS011;5277;48.722;8.736;2023-06-14T04:54:26;5.40;;;3.78;;
10458;SDS011;5277;48.722;8.736;2023-06-14T04:56:53;5.53;;;4.50;;
10458;SDS011;5277;48.722;8.736;2023-06-14T04:59:20;7.38;;;4.40;;
10458;SDS011;5277;48.722;8.736;2023-06-14T05:01:48;8.85;;;4.07;;
10458;SDS011;5277;48.722;8.736;2023-06-14T05:04:14;5.75;;;4.35;;
10458;SDS011;5277;48.722;8.736;2023-06-14T05:06:41;5.82;;;4.55;;
10458;SDS011;5277;48.722;8.736;2023-06-14T05:09:10;6.40;;;4.45;;
10458;SDS011;5277;48.722;8.736;2023-06-14T05:11:36;6.35;;;4.07;;
10458;SDS011;5277;48.722;8.736;2023-06-14T05:14:01;6.60;;;4.70;;
10458;SDS011;5277;48.722;8.736;2023-06-14T05:16:27;6.97;;;4.60;;
10458;SDS011;5277;48.722;8.736;2023-06-14T05:18:54;6.00;;;4.70;;
10458;SDS011;5277;48.722;8.736;2023-06-14T05:21:20;8.02;;;4.47;;
10458;SDS011;5277;48.722;8.736;2023-06-14T05:23:46;5.35;;;4.10;;
10458;SDS011;5277;48.722;8.736;2023-06-14T05:26:11;6.40;;;4.68;;
10458;SDS011;5277;48.722;8.736;2023-06-14T05:28:37;13.90;;;5.25;;
10458;SDS011;5277;48.722;8.736;2023-06-14T05:31:02;10.43;;;4.75;;
10458;SDS011;5277;48.722;8.736;2023-06-14T05:33:28;6.72;;;4.40;;
10458;SDS011;5277;48.722;8.736;2023-06-14T05:35:54;10.57;;;4.50;;
10458;SDS011;5277;48.722;8.736;2023-06-14T05:38:20;8.38;;;5.18;;
10458;SDS011;5277;48.722;8.736;2023-06-14T05:40:46;5.28;;;3.65;;
10458;SDS011;5277;48.722;8.736;2023-06-14T05:43:11;8.13;;;4.22;;
10458;SDS011;5277;48.722;8.736;2023-06-14T05:45:37;12.15;;;4.57;;
10458;SDS011;5277;48.722;8.736;2023-06-14T05:48:03;7.10;;;4.07;;
10458;SDS011;5277;48.722;8.736;2023-06-14T05:50:28;8.23;;;4.03;;
10458;SDS011;5277;48.722;8.736;2023-06-14T05:52:54;6.20;;;4.03;;
10458;SDS011;5277;48.722;8.736;2023-06-14T05:55:20;5.72;;;3.65;;
10458;SDS011;5277;48.722;8.736;2023-06-14T05:57:45;6.00;;;3.70;;
10458;SDS011;5277;48.722;8.736;2023-06-14T06:00:13;7.55;;;4.00;;
10458;SDS011;5277;48.722;8.736;2023-06-14T06:02:44;5.47;;;3.85;;
10458;SDS011;5277;48.722;8.736;2023-06-14T06:05:12;7.40;;;4.30;;
10458;SDS011;5277;48.722;8.736;2023-06-14T06:07:39;6.43;;;3.80;;
10458;SDS011;5277;48.722;8.736;2023-06-14T06:10:10;6.80;;;3.33;;
10458;SDS011;5277;48.722;8.736;2023-06-14T06:12:36;6.40;;;3.65;;
10458;SDS011;5277;48.722;8.736;2023-06-14T06:15:02;4.82;;;3.42;;
10458;SDS011;5277;48.722;8.736;2023-06-14T06:17:28;4.75;;;3.35;;
10458;SDS011;5277;48.722;8.736;2023-06-14T06:19:53;8.40;;;4.03;;
10458;SDS011;5277;48.722;8.736;2023-06-14T06:22:19;5.35;;;3.70;;
10458;SDS011;5277;48.722;8.736;2023-06-14T06:24:45;4.63;;;3.80;;
10458;SDS011;5277;48.722;8.736;2023-06-14T06:27:11;4.70;;;3.60;;
10458;SDS011;5277;48.722;8.736;2023-06-14T06:29:37;7.05;;;3.90;;
10458;SDS011;5277;48.722;8.736;2023-06-14T06:32:03;4.10;;;3.63;;
10458;SDS011;5277;48.722;8.736;2023-06-14T06:34:29;5.15;;;3.67;;
10458;SDS011;5277;48.722;8.736;2023-06-14T06:36:55;5.35;;;3.35;;
10458;SDS011;5277;48.722;8.736;2023-06-14T06:39:20;4.97;;;3.80;;
10458;SDS011;5277;48.722;8.736;2023-06-14T06:41:46;4.53;;;3.30;;
10458;SDS011;5277;48.722;8.736;2023-06-14T06:44:11;5.85;;;3.75;;
10458;SDS011;5277;48.722;8.736;2023-06-14T06:46:38;4.65;;;3.95;;
10458;SDS011;5277;48.722;8.736;2023-06-14T06:49:07;5.97;;;3.78;;
10458;SDS011;5277;48.722;8.736;2023-06-14T06:51:34;6.22;;;3.58;;
10458;SDS011;5277;48.722;8.736;2023-06-14T06:54:01;5.97;;;3.45;;
10458;SDS011;5277;48.722;8.736;2023-06-14T06:56:27;4.47;;;3.60;;
10458;SDS011;5277;48.722;8.736;2023-06-14T06:58:53;4.45;;;3.60;;
10458;SDS011;5277;48.722;8.736;2023-06-14T07:01:18;7.43;;;3.75;;
10458;SDS011;5277;48.722;8.736;2023-06-14T07:03:44;4.22;;;3.22;;
10458;SDS011;5277;48.722;8.736;2023-06-14T07:06:10;4.20;;;3.50;;
10458;SDS011;5277;48.722;8.736;2023-06-14T07:08:37;8.32;;;3.92;;
10458;SDS011;5277;48.722;8.736;2023-06-14T07:11:04;4.15;;;3.35;;
10458;SDS011;5277;48.722;8.736;2023-06-14T07:13:30;6.70;;;3.70;;
10458;SDS011;5277;48.722;8.736;2023-06-14T07:15:59;7.65;;;3.33;;
10458;SDS011;5277;48.722;8.736;2023-06-14T07:18:26;6.10;;;3.60;;
10458;SDS011;5277;48.722;8.736;2023-06-14T07:20:52;14.65;;;3.63;;
10458;SDS011;5277;48.722;8.736;2023-06-14T07:23:18;4.85;;;3.42;;
10458;SDS011;5277;48.722;8.736;2023-06-14T07:25:45;5.20;;;3.25;;
10458;SDS011;5277;48.722;8.736;2023-06-14T07:28:11;7.65;;;3.70;;
10458;SDS011;5277;48.722;8.736;2023-06-14T07:30:36;5.95;;;3.35;;
10458;SDS011;5277;48.722;8.736;2023-06-14T07:33:02;4.03;;;3.63;;
10458;SDS011;5277;48.722;8.736;2023-06-14T07:35:27;3.65;;;3.10;;
10458;SDS011;5277;48.722;8.736;2023-06-14T07:37:53;4.53;;;3.38;;
10458;SDS011;5277;48.722;8.736;2023-06-14T07:40:19;5.60;;;3.33;;
10458;SDS011;5277;48.722;8.736;2023-06-14T07:42:44;3.38;;;3.05;;
10458;SDS011;5277;48.722;8.736;2023-06-14T07:45:11;4.07;;;3.40;;
10458;SDS011;5277;48.722;8.736;2023-06-14T07:47:38;6.32;;;3.20;;
10458;SDS011;5277;48.722;8.736;2023-06-14T07:50:04;8.23;;;3.22;;
10458;SDS011;5277;48.722;8.736;2023-06-14T07:52:30;4.78;;;2.70;;
10458;SDS011;5277;48.722;8.736;2023-06-14T07:54:56;5.07;;;3.40;;
10458;SDS011;5277;48.722;8.736;2023-06-14T07:57:21;8.77;;;3.15;;
10458;SDS011;5277;48.722;8.736;2023-06-14T07:59:47;4.28;;;3.28;;
10458;SDS011;5277;48.722;8.736;2023-06-14T08:02:13;7.03;;;3.15;;
10458;SDS011;5277;48.722;8.736;2023-06-14T08:04:39;7.35;;;3.15;;
10458;SDS011;5277;48.722;8.736;2023-06-14T08:07:05;4.60;;;3.30;;
10458;SDS011;5277;48.722;8.736;2023-06-14T08:09:31;6.40;;;3.20;;
10458;SDS011;5277;48.722;8.736;2023-06-14T08:11:56;4.80;;;3.25;;
10458;SDS011;5277;48.722;8.736;2023-06-14T08:14:22;3.28;;;2.97;;
10458;SDS011;5277;48.722;8.736;2023-06-14T08:16:48;6.85;;;3.20;;
10458;SDS011;5277;48.722;8.736;2023-06-14T08:19:13;6.07;;;2.88;;
10458;SDS011;5277;48.722;8.736;2023-06-14T08:21:41;3.90;;;3.33;;
10458;SDS011;5277;48.722;8.736;2023-06-14T08:24:08;4.18;;;2.80;;
10458;SDS011;5277;48.722;8.736;2023-06-14T08:26:37;3.97;;;3.20;;
10458;SDS011;5277;48.722;8.736;2023-06-14T08:29:03;9.43;;;3.55;;
10458;SDS011;5277;48.722;8.736;2023-06-14T08:31:29;7.53;;;3.30;;
10458;SDS011;5277;48.722;8.736;2023-06-14T08:33:56;6.07;;;2.80;;
10458;SDS011;5277;48.722;8.736;2023-06-14T08:36:22;4.75;;;3.35;;
10458;SDS011;5277;48.722;8.736;2023-06-14T08:38:48;4.65;;;3.10;;
10458;SDS011;5277;48.722;8.736;2023-06-14T08:41:13;5.38;;;3.22;;
10458;SDS011;5277;48.722;8.736;2023-06-14T08:43:47;6.25;;;3.50;;
10458;SDS011;5277;48.722;8.736;2023-06-14T08:46:12;4.93;;;3.83;;
10458;SDS011;5277;48.722;8.736;2023-06-14T08:48:44;4.93;;;3.35;;
10458;SDS011;5277;48.722;8.736;2023-06-14T08:51:11;5.47;;;3.70;;
10458;SDS011;5277;48.722;8.736;2023-06-14T08:53:39;10.57;;;3.72;;
10458;SDS011;5277;48.722;8.736;2023-06-14T08:56:07;6.80;;;3.30;;
10458;SDS011;5277;48.722;8.736;2023-06-14T08:58:38;7.07;;;3.95;;
10458;SDS011;5277;48.722;8.736;2023-06-14T09:01:10;4.50;;;3.17;;
10458;SDS011;5277;48.722;8.736;2023-06-14T09:03:39;4.90;;;3.50;;
10458;SDS011;5277;48.722;8.736;2023-06-14T09:06:06;5.70;;;3.65;;
10458;SDS011;5277;48.722;8.736;2023-06-14T09:08:34;5.80;;;3.53;;
10458;SDS011;5277;48.722;8.736;2023-06-14T09:11:01;8.93;;;3.45;;
10458;SDS011;5277;48.722;8.736;2023-06-14T09:13:27;8.15;;;3.53;;
10458;SDS011;5277;48.722;8.736;2023-06-14T09:15:52;7.53;;;3.88;;
10458;SDS011;5277;48.722;8.736;2023-06-14T09:18:18;4.68;;;3.47;;
10458;SDS011;5277;48.722;8.736;2023-06-14T09:20:47;6.85;;;3.80;;
10458;SDS011;5277;48.722;8.736;2023-06-14T09:23:13;4.90;;;3.40;;
10458;SDS011;5277;48.722;8.736;2023-06-14T09:25:45;10.48;;;4.05;;
10458;SDS011;5277;48.722;8.736;2023-06-14T09:28:11;6.97;;;3.78;;
10458;SDS011;5277;48.722;8.736;2023-06-14T09:30:37;5.00;;;3.63;;
10458;SDS011;5277;48.722;8.736;2023-06-14T09:33:03;8.30;;;4.05;;
10458;SDS011;5277;48.722;8.736;2023-06-14T09:35:30;7.53;;;4.30;;
10458;SDS011;5277;48.722;8.736;2023-06-14T09:37:57;4.80;;;3.58;;
10458;SDS011;5277;48.722;8.736;2023-06-14T09:40:23;7.88;;;4.00;;
10458;SDS011;5277;48.722;8.736;2023-06-14T09:42:49;9.85;;;3.90;;
10458;SDS011;5277;48.722;8.736;2023-06-14T09:45:15;4.47;;;3.83;;
10458;SDS011;5277;48.722;8.736;2023-06-14T09:47:46;4.97;;;3.70;;
10458;SDS011;5277;48.722;8.736;2023-06-14T09:50:14;10.30;;;3.63;;
10458;SDS011;5277;48.722;8.736;2023-06-14T09:52:39;3.17;;;2.88;;
10458;SDS011;5277;48.722;8.736;2023-06-14T09:55:11;8.95;;;3.65;;
10458;SDS011;5277;48.722;8.736;2023-06-14T09:57:38;11.05;;;4.00;;
10458;SDS011;5277;48.722;8.736;2023-06-14T10:00:08;5.43;;;3.50;;
10458;SDS011;5277;48.722;8.736;2023-06-14T10:02:38;5.50;;;3.20;;
10458;SDS011;5277;48.722;8.736;2023-06-14T10:05:08;5.18;;;3.58;;
10458;SDS011;5277;48.722;8.736;2023-06-14T10:07:40;5.70;;;3.78;;
10458;SDS011;5277;48.722;8.736;2023-06-14T10:10:13;5.80;;;3.17;;
10458;SDS011;5277;48.722;8.736;2023-06-14T10:12:39;7.38;;;3.67;;
10458;SDS011;5277;48.722;8.736;2023-06-14T10:15:05;4.97;;;3.30;;
10458;SDS011;5277;48.722;8.736;2023-06-14T10:22:32;4.55;;;3.78;;
10458;SDS011;5277;48.722;8.736;2023-06-14T10:25:03;5.30;;;3.70;;
10458;SDS011;5277;48.722;8.736;2023-06-14T10:27:36;7.72;;;4.00;;
10458;SDS011;5277;48.722;8.736;2023-06-14T10:30:03;5.18;;;3.72;;
10458;SDS011;5277;48.722;8.736;2023-06-14T10:32:31;5.38;;;3.28;;
10458;SDS011;5277;48.722;8.736;2023-06-14T10:34:58;4.57;;;3.28;;
10458;SDS011;5277;48.722;8.736;2023-06-14T10:37:24;11.10;;;3.60;;
10458;SDS011;5277;48.722;8.736;2023-06-14T10:39:53;3.72;;;3.35;;
10458;SDS011;5277;48.722;8.736;2023-06-14T10:42:19;5.18;;;3.65;;
10458;SDS011;5277;48.722;8.736;2023-06-14T10:44:45;4.43;;;3.35;;
10458;SDS011;5277;48.722;8.736;2023-06-14T10:49:50;4.68;;;3.00;;
10458;SDS011;5277;48.722;8.736;2023-06-14T10:52:19;7.38;;;3.10;;
10458;SDS011;5277;48.722;8.736;2023-06-14T10:55:00;5.88;;;3.67;;
10458;SDS011;5277;48.722;8.736;2023-06-14T11:00:23;4.05;;;2.70;;
10458;SDS011;5277;48.722;8.736;2023-06-14T11:05:41;4.03;;;3.13;;
10458;SDS011;5277;48.722;8.736;2023-06-14T11:10:43;4.50;;;3.60;;
10458;SDS011;5277;48.722;8.736;2023-06-14T11:13:12;5.70;;;3.58;;
10458;SDS011;5277;48.722;8.736;2023-06-14T11:15:38;8.95;;;3.60;;
10458;SDS011;5277;48.722;8.736;2023-06-14T11:18:08;4.00;;;3.45;;
10458;SDS011;5277;48.722;8.736;2023-06-14T11:20:37;8.13;;;3.92;;
10458;SDS011;5277;48.722;8.736;2023-06-14T11:23:04;8.32;;;3.85;;
10458;SDS011;5277;48.722;8.736;2023-06-14T11:25:30;4.70;;;3.75;;
10458;SDS011;5277;48.722;8.736;2023-06-14T11:27:56;4.95;;;3.38;;
10458;SDS011;5277;48.722;8.736;2023-06-14T11:30:23;5.82;;;3.53;;
10458;SDS011;5277;48.722;8.736;2023-06-14T11:32:49;4.40;;;2.88;;
10458;SDS011;5277;48.722;8.736;2023-06-14T11:35:17;5.25;;;3.30;;
10458;SDS011;5277;48.722;8.736;2023-06-14T11:37:43;3.72;;;3.30;;
10458;SDS011;5277;48.722;8.736;2023-06-14T11:40:09;4.72;;;3.95;;
10458;SDS011;5277;48.722;8.736;2023-06-14T11:42:37;4.60;;;3.47;;
10458;SDS011;5277;48.722;8.736;2023-06-14T11:45:04;8.40;;;3.70;;
10458;SDS011;5277;48.722;8.736;2023-06-14T11:47:33;6.43;;;3.63;;
10458;SDS011;5277;48.722;8.736;2023-06-14T11:49:59;4.22;;;3.47;;
10458;SDS011;5277;48.722;8.736;2023-06-14T11:52:25;10.23;;;3.50;;
10458;SDS011;5277;48.722;8.736;2023-06-14T11:54:51;9.20;;;3.85;;
10458;SDS011;5277;48.722;8.736;2023-06-14T11:57:19;4.32;;;3.30;;
10458;SDS011;5277;48.722;8.736;2023-06-14T11:59:44;3.95;;;3.40;;
10458;SDS011;5277;48.722;8.736;2023-06-14T12:02:14;4.07;;;3.65;;
10458;SDS011;5277;48.722;8.736;2023-06-14T12:04:41;4.97;;;3.63;;
10458;SDS011;5277;48.722;8.736;2023-06-14T12:07:11;5.07;;;3.78;;
10458;SDS011;5277;48.722;8.736;2023-06-14T12:09:40;15.50;;;4.43;;
10458;SDS011;5277;48.722;8.736;2023-06-14T12:12:09;6.82;;;3.38;;
10458;SDS011;5277;48.722;8.736;2023-06-14T12:14:35;7.60;;;3.55;;
10458;SDS011;5277;48.722;8.736;2023-06-14T12:17:05;4.95;;;3.60;;
10458;SDS011;5277;48.722;8.736;2023-06-14T12:19:41;29.42;;;5.13;;
10458;SDS011;5277;48.722;8.736;2023-06-14T12:22:09;7.82;;;2.90;;
10458;SDS011;5277;48.722;8.736;2023-06-14T12:24:35;4.22;;;3.20;;
10458;SDS011;5277;48.722;8.736;2023-06-14T12:27:01;5.72;;;3.20;;
10458;SDS011;5277;48.722;8.736;2023-06-14T12:29:30;5.70;;;3.63;;
10458;SDS011;5277;48.722;8.736;2023-06-14T12:31:56;5.75;;;3.20;;
10458;SDS011;5277;48.722;8.736;2023-06-14T12:34:23;6.15;;;3.70;;
10458;SDS011;5277;48.722;8.736;2023-06-14T12:36:50;6.88;;;3.47;;
10458;SDS011;5277;48.722;8.736;2023-06-14T12:39:18;4.93;;;3.50;;
10458;SDS011;5277;48.722;8.736;2023-06-14T12:41:43;5.45;;;3.25;;
10458;SDS011;5277;48.722;8.736;2023-06-14T12:44:10;4.60;;;3.35;;
10458;SDS011;5277;48.722;8.736;2023-06-14T12:46:36;4.18;;;3.45;;
10458;SDS011;5277;48.722;8.736;2023-06-14T12:49:04;3.95;;;3.03;;
10458;SDS011;5277;48.722;8.736;2023-06-14T12:51:30;6.72;;;3.65;;
10458;SDS011;5277;48.722;8.736;2023-06-14T12:53:56;3.55;;;3.25;;
10458;SDS011;5277;48.722;8.736;2023-06-14T12:56:21;5.72;;;3.17;;
10458;SDS011;5277;48.722;8.736;2023-06-14T12:58:47;6.25;;;3.42;;
10458;SDS011;5277;48.722;8.736;2023-06-14T13:01:12;3.53;;;3.03;;
10458;SDS011;5277;48.722;8.736;2023-06-14T13:03:38;6.05;;;3.90;;
10458;SDS011;5277;48.722;8.736;2023-06-14T13:06:04;12.65;;;3.75;;
10458;SDS011;5277;48.722;8.736;2023-06-14T13:08:30;3.78;;;3.13;;
10458;SDS011;5277;48.722;8.736;2023-06-14T13:10:56;4.63;;;3.00;;
10458;SDS011;5277;48.722;8.736;2023-06-14T13:13:22;3.92;;;3.03;;
10458;SDS011;5277;48.722;8.736;2023-06-14T13:15:48;7.05;;;3.40;;
10458;SDS011;5277;48.722;8.736;2023-06-14T13:18:15;3.75;;;3.03;;
10458;SDS011;5277;48.722;8.736;2023-06-14T13:20:41;6.03;;;3.25;;
10458;SDS011;5277;48.722;8.736;2023-06-14T13:23:07;3.67;;;3.13;;
10458;SDS011;5277;48.722;8.736;2023-06-14T13:25:36;3.80;;;3.33;;
10458;SDS011;5277;48.722;8.736;2023-06-14T13:28:03;12.40;;;3.33;;
10458;SDS011;5277;48.722;8.736;2023-06-14T13:30:30;3.72;;;3.33;;
10458;SDS011;5277;48.722;8.736;2023-06-14T13:32:57;4.32;;;3.38;;
10458;SDS011;5277;48.722;8.736;2023-06-14T13:35:23;6.10;;;3.30;;
10458;SDS011;5277;48.722;8.736;2023-06-14T13:37:49;3.45;;;2.75;;
10458;SDS011;5277;48.722;8.736;2023-06-14T13:40:15;6.18;;;3.13;;
10458;SDS011;5277;48.722;8.736;2023-06-14T13:42:40;5.28;;;3.50;;
10458;SDS011;5277;48.722;8.736;2023-06-14T13:45:06;5.53;;;3.40;;
10458;SDS011;5277;48.722;8.736;2023-06-14T13:47:33;13.45;;;3.78;;
10458;SDS011;5277;48.722;8.736;2023-06-14T13:49:59;4.88;;;3.05;;
10458;SDS011;5277;48.722;8.736;2023-06-14T13:52:24;4.93;;;3.13;;
10458;SDS011;5277;48.722;8.736;2023-06-14T13:54:51;5.43;;;2.83;;
10458;SDS011;5277;48.722;8.736;2023-06-14T13:57:17;5.15;;;3.20;;
10458;SDS011;5277;48.722;8.736;2023-06-14T13:59:43;4.70;;;3.28;;
10458;SDS011;5277;48.722;8.736;2023-06-14T14:02:09;6.90;;;3.15;;
10458;SDS011;5277;48.722;8.736;2023-06-14T14:04:35;5.70;;;3.25;;
10458;SDS011;5277;48.722;8.736;2023-06-14T14:07:01;10.00;;;3.22;;
10458;SDS011;5277;48.722;8.736;2023-06-14T14:09:35;3.13;;;2.83;;
10458;SDS011;5277;48.722;8.736;2023-06-14T14:12:02;6.90;;;3.58;;
10458;SDS011;5277;48.722;8.736;2023-06-14T14:14:28;15.38;;;3.47;;
10458;SDS011;5277;48.722;8.736;2023-06-14T14:16:54;9.38;;;3.38;;
10458;SDS011;5277;48.722;8.736;2023-06-14T14:19:23;5.63;;;2.95;;
10458;SDS011;5277;48.722;8.736;2023-06-14T14:21:49;5.28;;;3.17;;
10458;SDS011;5277;48.722;8.736;2023-06-14T14:24:14;3.75;;;3.15;;
10458;SDS011;5277;48.722;8.736;2023-06-14T14:26:41;3.33;;;3.03;;
10458;SDS011;5277;48.722;8.736;2023-06-14T14:29:06;3.22;;;2.60;;
10458;SDS011;5277;48.722;8.736;2023-06-14T14:31:32;3.40;;;2.90;;
10458;SDS011;5277;48.722;8.736;2023-06-14T14:33:58;5.25;;;3.17;;
10458;SDS011;5277;48.722;8.736;2023-06-14T14:36:24;7.43;;;3.30;;
10458;SDS011;5277;48.722;8.736;2023-06-14T14:38:49;3.40;;;2.90;;
10458;SDS011;5277;48.722;8.736;2023-06-14T14:41:16;4.30;;;3.20;;
10458;SDS011;5277;48.722;8.736;2023-06-14T14:43:42;3.03;;;2.70;;
10458;SDS011;5277;48.722;8.736;2023-06-14T14:46:08;5.03;;;2.88;;
10458;SDS011;5277;48.722;8.736;2023-06-14T14:48:33;3.22;;;2.92;;
10458;SDS011;5277;48.722;8.736;2023-06-14T14:50:59;5.78;;;2.78;;
10458;SDS011;5277;48.722;8.736;2023-06-14T14:53:24;3.97;;;2.88;;
10458;SDS011;5277;48.722;8.736;2023-06-14T14:55:50;3.63;;;2.83;;
10458;SDS011;5277;48.722;8.736;2023-06-14T14:58:16;4.88;;;3.00;;
10458;SDS011;5277;48.722;8.736;2023-06-14T15:00:45;3.05;;;2.70;;
10458;SDS011;5277;48.722;8.736;2023-06-14T15:03:11;6.88;;;3.10;;
10458;SDS011;5277;48.722;8.736;2023-06-14T15:05:36;3.90;;;2.85;;
10458;SDS011;5277;48.722;8.736;2023-06-14T15:08:02;6.22;;;2.88;;
10458;SDS011;5277;48.722;8.736;2023-06-14T15:10:30;4.20;;;2.92;;
10458;SDS011;5277;48.722;8.736;2023-06-14T15:12:55;3.60;;;2.92;;